sensor_id;sensor_type;location;lat;lon;timestamp;P1;P2;P0
43479;PMS5003;29067;35.492;-97.520;2023-07-02T00:02:09;4;3;
43479;PMS5003;29067;35.492;-97.520;2023-07-02T00:04:37;3;3;
43479;PMS5003;29067;35.492;-97.520;2023-07-02T00:07:06;1;1;
43479;PMS5003;29067;35.492;-97.520;2023-07-02T00:09:34;3;3;
43479;PMS5003;29067;35.492;-97.520;2023-07-02T00:12:02;3;3;
43479;PMS5003;29067;35.492;-97.520;2023-07-02T00:14:31;3;3;
43479;PMS5003;29067;35.492;-97.520;2023-07-02T00:17:00;2;2;
43479;PMS5003;29067;35.492;-97.520;2023-07-02T00:19:28;3;3;
43479;PMS5003;29067;35.492;-97.520;2023-07-02T00:21:56;2;2;
43479;PMS5003;29067;35.492;-97.520;2023-07-02T00:24:24;3;3;
43479;PMS5003;29067;35.492;-97.520;2023-07-02T00:26:53;2;2;
43479;PMS5003;29067;35.492;-97.520;2023-07-02T00:29:21;3;3;
43479;PMS5003;29067;35.492;-97.520;2023-07-02T00:31:49;2;2;
43479;PMS5003;29067;35.492;-97.520;2023-07-02T00:34:18;1;1;
43479;PMS5003;29067;35.492;-97.520;2023-07-02T00:36:47;3;3;
43479;PMS5003;29067;35.492;-97.520;2023-07-02T00:39:15;2;2;
43479;PMS5003;29067;35.492;-97.520;2023-07-02T00:41:43;3;3;
43479;PMS5003;29067;35.492;-97.520;2023-07-02T00:44:12;2;2;
43479;PMS5003;29067;35.492;-97.520;2023-07-02T00:46:40;2;2;
43479;PMS5003;29067;35.492;-97.520;2023-07-02T00:49:08;2;2;
43479;PMS5003;29067;35.492;-97.520;2023-07-02T00:51:37;4;4;
43479;PMS5003;29067;35.492;-97.520;2023-07-02T00:54:05;2;2;
43479;PMS5003;29067;35.492;-97.520;2023-07-02T00:56:34;2;1;
43479;PMS5003;29067;35.492;-97.520;2023-07-02T00:59:02;3;3;
43479;PMS5003;29067;35.492;-97.520;2023-07-02T01:01:30;3;3;
43479;PMS5003;29067;35.492;-97.520;2023-07-02T01:03:59;2;2;
43479;PMS5003;29067;35.492;-97.520;2023-07-02T01:06:29;3;3;
43479;PMS5003;29067;35.492;-97.520;2023-07-02T01:09:00;2;2;
43479;PMS5003;29067;35.492;-97.520;2023-07-02T01:11:30;2;2;
43479;PMS5003;29067;35.492;-97.520;2023-07-02T01:14:01;3;3;
43479;PMS5003;29067;35.492;-97.520;2023-07-02T01:16:32;3;3;
43479;PMS5003;29067;35.492;-97.520;2023-07-02T01:19:01;3;3;
43479;PMS5003;29067;35.492;-97.520;2023-07-02T01:21:32;2;2;
43479;PMS5003;29067;35.492;-97.520;2023-07-02T01:24:00;4;4;
43479;PMS5003;29067;35.492;-97.520;2023-07-02T01:26:29;2;2;
43479;PMS5003;29067;35.492;-97.520;2023-07-02T01:28:57;2;2;
43479;PMS5003;29067;35.492;-97.520;2023-07-02T01:31:25;3;3;
43479;PMS5003;29067;35.492;-97.520;2023-07-02T01:33:54;3;3;
43479;PMS5003;29067;35.492;-97.520;2023-07-02T01:36:22;4;4;
43479;PMS5003;29067;35.492;-97.520;2023-07-02T01:38:51;4;4;
43479;PMS5003;29067;35.492;-97.520;2023-07-02T01:41:18;3;3;
43479;PMS5003;29067;35.492;-97.520;2023-07-02T01:43:47;2;2;
43479;PMS5003;29067;35.492;-97.520;2023-07-02T01:46:15;3;3;
43479;PMS5003;29067;35.492;-97.520;2023-07-02T01:48:43;3;3;
43479;PMS5003;29067;35.492;-97.520;2023-07-02T01:51:12;2;2;
43479;PMS5003;29067;35.492;-97.520;2023-07-02T01:53:40;2;2;
43479;PMS5003;29067;35.492;-97.520;2023-07-02T01:56:08;2;2;
43479;PMS5003;29067;35.492;-97.520;2023-07-02T01:58:36;2;2;
43479;PMS5003;29067;35.492;-97.520;2023-07-02T02:01:05;2;2;
43479;PMS5003;29067;35.492;-97.520;2023-07-02T02:03:33;2;2;
43479;PMS5003;29067;35.492;-97.520;2023-07-02T02:06:02;3;3;
43479;PMS5003;29067;35.492;-97.520;2023-07-02T02:08:30;3;3;
43479;PMS5003;29067;35.492;-97.520;2023-07-02T02:10:58;3;3;
43479;PMS5003;29067;35.492;-97.520;2023-07-02T02:13:26;3;3;
43479;PMS5003;29067;35.492;-97.520;2023-07-02T02:15:55;3;3;
43479;PMS5003;29067;35.492;-97.520;2023-07-02T02:18:23;4;4;
43479;PMS5003;29067;35.492;-97.520;2023-07-02T02:20:51;3;3;
43479;PMS5003;29067;35.492;-97.520;2023-07-02T02:23:20;3;2;
43479;PMS5003;29067;35.492;-97.520;2023-07-02T02:25:48;4;4;
43479;PMS5003;29067;35.492;-97.520;2023-07-02T02:28:16;3;3;
43479;PMS5003;29067;35.492;-97.520;2023-07-02T02:30:45;4;4;
43479;PMS5003;29067;35.492;-97.520;2023-07-02T02:33:13;5;5;
43479;PMS5003;29067;35.492;-97.520;2023-07-02T02:35:41;7;7;
43479;PMS5003;29067;35.492;-97.520;2023-07-02T02:38:09;9;9;
43479;PMS5003;29067;35.492;-97.520;2023-07-02T02:40:38;6;6;
43479;PMS5003;29067;35.492;-97.520;2023-07-02T02:43:06;6;6;
43479;PMS5003;29067;35.492;-97.520;2023-07-02T02:45:34;7;7;
43479;PMS5003;29067;35.492;-97.520;2023-07-02T02:48:03;6;5;
43479;PMS5003;29067;35.492;-97.520;2023-07-02T02:50:31;5;5;
43479;PMS5003;29067;35.492;-97.520;2023-07-02T02:53:00;5;3;
43479;PMS5003;29067;35.492;-97.520;2023-07-02T02:55:28;4;4;
43479;PMS5003;29067;35.492;-97.520;2023-07-02T02:57:56;4;4;
43479;PMS5003;29067;35.492;-97.520;2023-07-02T03:00:24;5;4;
43479;PMS5003;29067;35.492;-97.520;2023-07-02T03:02:53;4;4;
43479;PMS5003;29067;35.492;-97.520;2023-07-02T03:05:21;3;3;
43479;PMS5003;29067;35.492;-97.520;2023-07-02T03:07:50;4;4;
43479;PMS5003;29067;35.492;-97.520;2023-07-02T03:10:18;6;5;
43479;PMS5003;29067;35.492;-97.520;2023-07-02T03:12:47;4;4;
43479;PMS5003;29067;35.492;-97.520;2023-07-02T03:15:15;5;5;
43479;PMS5003;29067;35.492;-97.520;2023-07-02T03:17:44;7;6;
43479;PMS5003;29067;35.492;-97.520;2023-07-02T03:20:12;8;7;
43479;PMS5003;29067;35.492;-97.520;2023-07-02T03:22:40;6;6;
43479;PMS5003;29067;35.492;-97.520;2023-07-02T03:25:09;6;6;
43479;PMS5003;29067;35.492;-97.520;2023-07-02T03:27:37;6;5;
43479;PMS5003;29067;35.492;-97.520;2023-07-02T03:30:06;5;5;
43479;PMS5003;29067;35.492;-97.520;2023-07-02T03:32:34;7;6;
43479;PMS5003;29067;35.492;-97.520;2023-07-02T03:35:03;5;5;
43479;PMS5003;29067;35.492;-97.520;2023-07-02T03:37:31;5;4;
43479;PMS5003;29067;35.492;-97.520;2023-07-02T03:39:59;4;4;
43479;PMS5003;29067;35.492;-97.520;2023-07-02T03:42:29;3;3;
43479;PMS5003;29067;35.492;-97.520;2023-07-02T03:44:59;3;3;
43479;PMS5003;29067;35.492;-97.520;2023-07-02T03:47:27;4;4;
43479;PMS5003;29067;35.492;-97.520;2023-07-02T03:49:55;6;5;
43479;PMS5003;29067;35.492;-97.520;2023-07-02T03:52:08;6;5;
43479;PMS5003;29067;35.492;-97.520;2023-07-02T03:54:37;5;5;
43479;PMS5003;29067;35.492;-97.520;2023-07-02T03:57:05;4;4;
43479;PMS5003;29067;35.492;-97.520;2023-07-02T03:59:33;4;4;
43479;PMS5003;29067;35.492;-97.520;2023-07-02T04:02:02;6;6;
43479;PMS5003;29067;35.492;-97.520;2023-07-02T04:04:30;6;6;
43479;PMS5003;29067;35.492;-97.520;2023-07-02T04:06:58;4;4;
43479;PMS5003;29067;35.492;-97.520;2023-07-02T04:09:27;5;5;
43479;PMS5003;29067;35.492;-97.520;2023-07-02T04:11:55;5;5;
43479;PMS5003;29067;35.492;-97.520;2023-07-02T04:14:23;8;8;
43479;PMS5003;29067;35.492;-97.520;2023-07-02T04:16:52;7;7;
43479;PMS5003;29067;35.492;-97.520;2023-07-02T04:19:20;9;9;
43479;PMS5003;29067;35.492;-97.520;2023-07-02T04:21:48;11;10;
43479;PMS5003;29067;35.492;-97.520;2023-07-02T04:24:17;13;13;
43479;PMS5003;29067;35.492;-97.520;2023-07-02T04:26:45;16;16;
43479;PMS5003;29067;35.492;-97.520;2023-07-02T04:29:13;18;18;
43479;PMS5003;29067;35.492;-97.520;2023-07-02T04:31:42;24;22;
43479;PMS5003;29067;35.492;-97.520;2023-07-02T04:34:10;24;22;
43479;PMS5003;29067;35.492;-97.520;2023-07-02T04:36:38;28;25;
43479;PMS5003;29067;35.492;-97.520;2023-07-02T04:39:06;28;26;
43479;PMS5003;29067;35.492;-97.520;2023-07-02T04:41:35;25;24;
43479;PMS5003;29067;35.492;-97.520;2023-07-02T04:44:04;22;21;
43479;PMS5003;29067;35.492;-97.520;2023-07-02T04:46:33;21;17;
43479;PMS5003;29067;35.492;-97.520;2023-07-02T04:49:01;19;17;
43479;PMS5003;29067;35.492;-97.520;2023-07-02T04:51:29;17;17;
43479;PMS5003;29067;35.492;-97.520;2023-07-02T04:53:57;15;15;
43479;PMS5003;29067;35.492;-97.520;2023-07-02T04:56:25;14;13;
43479;PMS5003;29067;35.492;-97.520;2023-07-02T04:58:54;16;14;
43479;PMS5003;29067;35.492;-97.520;2023-07-02T05:01:22;11;11;
43479;PMS5003;29067;35.492;-97.520;2023-07-02T05:03:50;11;11;
43479;PMS5003;29067;35.492;-97.520;2023-07-02T05:06:19;12;12;
43479;PMS5003;29067;35.492;-97.520;2023-07-02T05:08:47;12;11;
43479;PMS5003;29067;35.492;-97.520;2023-07-02T05:11:15;12;11;
43479;PMS5003;29067;35.492;-97.520;2023-07-02T05:13:43;9;9;
43479;PMS5003;29067;35.492;-97.520;2023-07-02T05:16:12;12;12;
43479;PMS5003;29067;35.492;-97.520;2023-07-02T05:18:40;13;8;
43479;PMS5003;29067;35.492;-97.520;2023-07-02T05:21:08;10;9;
43479;PMS5003;29067;35.492;-97.520;2023-07-02T05:23:37;12;11;
43479;PMS5003;29067;35.492;-97.520;2023-07-02T05:26:05;12;12;
43479;PMS5003;29067;35.492;-97.520;2023-07-02T05:28:33;10;10;
43479;PMS5003;29067;35.492;-97.520;2023-07-02T05:31:01;12;11;
43479;PMS5003;29067;35.492;-97.520;2023-07-02T05:33:30;11;11;
43479;PMS5003;29067;35.492;-97.520;2023-07-02T05:35:58;14;13;
43479;PMS5003;29067;35.492;-97.520;2023-07-02T05:38:26;13;13;
43479;PMS5003;29067;35.492;-97.520;2023-07-02T05:40:55;13;13;
43479;PMS5003;29067;35.492;-97.520;2023-07-02T05:43:22;13;13;
43479;PMS5003;29067;35.492;-97.520;2023-07-02T05:45:51;16;16;
43479;PMS5003;29067;35.492;-97.520;2023-07-02T05:48:19;12;12;
43479;PMS5003;29067;35.492;-97.520;2023-07-02T05:50:47;9;9;
43479;PMS5003;29067;35.492;-97.520;2023-07-02T05:53:15;11;10;
43479;PMS5003;29067;35.492;-97.520;2023-07-02T05:55:43;14;13;
43479;PMS5003;29067;35.492;-97.520;2023-07-02T05:58:11;25;25;
43479;PMS5003;29067;35.492;-97.520;2023-07-02T06:00:39;44;44;
43479;PMS5003;29067;35.492;-97.520;2023-07-02T06:03:06;11;10;
43479;PMS5003;29067;35.492;-97.520;2023-07-02T06:05:34;87;87;
43479;PMS5003;29067;35.492;-97.520;2023-07-02T06:08:02;93;93;
43479;PMS5003;29067;35.492;-97.520;2023-07-02T06:10:30;45;45;
43479;PMS5003;29067;35.492;-97.520;2023-07-02T06:12:58;16;11;
43479;PMS5003;29067;35.492;-97.520;2023-07-02T06:15:25;31;30;
43479;PMS5003;29067;35.492;-97.520;2023-07-02T06:17:54;26;26;
43479;PMS5003;29067;35.492;-97.520;2023-07-02T06:20:22;29;29;
43479;PMS5003;29067;35.492;-97.520;2023-07-02T06:22:50;18;14;
43479;PMS5003;29067;35.492;-97.520;2023-07-02T06:25:18;36;35;
43479;PMS5003;29067;35.492;-97.520;2023-07-02T06:27:46;13;9;
43479;PMS5003;29067;35.492;-97.520;2023-07-02T06:30:15;29;27;
43479;PMS5003;29067;35.492;-97.520;2023-07-02T06:32:43;17;16;
43479;PMS5003;29067;35.492;-97.520;2023-07-02T06:35:11;55;55;
43479;PMS5003;29067;35.492;-97.520;2023-07-02T06:37:39;32;29;
43479;PMS5003;29067;35.492;-97.520;2023-07-02T06:40:07;19;16;
43479;PMS5003;29067;35.492;-97.520;2023-07-02T06:42:35;18;15;
43479;PMS5003;29067;35.492;-97.520;2023-07-02T06:45:04;30;28;
43479;PMS5003;29067;35.492;-97.520;2023-07-02T06:47:33;14;10;
43479;PMS5003;29067;35.492;-97.520;2023-07-02T06:50:02;30;27;
43479;PMS5003;29067;35.492;-97.520;2023-07-02T06:52:30;11;8;
43479;PMS5003;29067;35.492;-97.520;2023-07-02T06:54:58;39;37;
43479;PMS5003;29067;35.492;-97.520;2023-07-02T06:57:26;30;28;
43479;PMS5003;29067;35.492;-97.520;2023-07-02T06:59:57;22;18;
43479;PMS5003;29067;35.492;-97.520;2023-07-02T07:02:25;19;16;
43479;PMS5003;29067;35.492;-97.520;2023-07-02T07:04:53;16;13;
43479;PMS5003;29067;35.492;-97.520;2023-07-02T07:07:20;21;18;
43479;PMS5003;29067;35.492;-97.520;2023-07-02T07:09:48;23;20;
43479;PMS5003;29067;35.492;-97.520;2023-07-02T07:12:16;25;23;
43479;PMS5003;29067;35.492;-97.520;2023-07-02T07:14:44;14;11;
43479;PMS5003;29067;35.492;-97.520;2023-07-02T07:17:11;26;24;
43479;PMS5003;29067;35.492;-97.520;2023-07-02T07:19:39;19;16;
43479;PMS5003;29067;35.492;-97.520;2023-07-02T07:22:08;10;7;
43479;PMS5003;29067;35.492;-97.520;2023-07-02T07:24:35;8;5;
43479;PMS5003;29067;35.492;-97.520;2023-07-02T07:27:04;10;6;
43479;PMS5003;29067;35.492;-97.520;2023-07-02T07:29:32;14;11;
43479;PMS5003;29067;35.492;-97.520;2023-07-02T07:32:02;12;8;
43479;PMS5003;29067;35.492;-97.520;2023-07-02T07:34:30;5;5;
43479;PMS5003;29067;35.492;-97.520;2023-07-02T07:36:58;3;3;
43479;PMS5003;29067;35.492;-97.520;2023-07-02T07:39:26;5;5;
43479;PMS5003;29067;35.492;-97.520;2023-07-02T07:41:55;4;4;
43479;PMS5003;29067;35.492;-97.520;2023-07-02T07:44:23;4;4;
43479;PMS5003;29067;35.492;-97.520;2023-07-02T07:46:52;5;4;
43479;PMS5003;29067;35.492;-97.520;2023-07-02T07:49:21;4;4;
43479;PMS5003;29067;35.492;-97.520;2023-07-02T07:51:48;5;4;
43479;PMS5003;29067;35.492;-97.520;2023-07-02T07:54:17;4;4;
43479;PMS5003;29067;35.492;-97.520;2023-07-02T07:56:45;6;6;
43479;PMS5003;29067;35.492;-97.520;2023-07-02T07:59:14;5;5;
43479;PMS5003;29067;35.492;-97.520;2023-07-02T08:01:42;5;4;
43479;PMS5003;29067;35.492;-97.520;2023-07-02T08:04:10;5;5;
43479;PMS5003;29067;35.492;-97.520;2023-07-02T08:06:39;4;4;
43479;PMS5003;29067;35.492;-97.520;2023-07-02T08:09:07;4;4;
43479;PMS5003;29067;35.492;-97.520;2023-07-02T08:11:35;8;6;
43479;PMS5003;29067;35.492;-97.520;2023-07-02T08:14:04;5;5;
43479;PMS5003;29067;35.492;-97.520;2023-07-02T08:16:32;6;6;
43479;PMS5003;29067;35.492;-97.520;2023-07-02T08:19:00;6;6;
43479;PMS5003;29067;35.492;-97.520;2023-07-02T08:21:28;5;5;
43479;PMS5003;29067;35.492;-97.520;2023-07-02T08:23:57;5;5;
43479;PMS5003;29067;35.492;-97.520;2023-07-02T08:26:25;5;5;
43479;PMS5003;29067;35.492;-97.520;2023-07-02T08:28:52;3;3;
43479;PMS5003;29067;35.492;-97.520;2023-07-02T08:31:20;5;5;
43479;PMS5003;29067;35.492;-97.520;2023-07-02T08:33:48;6;3;
43479;PMS5003;29067;35.492;-97.520;2023-07-02T08:36:17;7;6;
43479;PMS5003;29067;35.492;-97.520;2023-07-02T08:38:44;5;5;
43479;PMS5003;29067;35.492;-97.520;2023-07-02T08:41:13;6;5;
43479;PMS5003;29067;35.492;-97.520;2023-07-02T08:43:41;7;7;
43479;PMS5003;29067;35.492;-97.520;2023-07-02T08:46:10;5;5;
43479;PMS5003;29067;35.492;-97.520;2023-07-02T08:48:38;5;5;
43479;PMS5003;29067;35.492;-97.520;2023-07-02T08:51:07;3;3;
43479;PMS5003;29067;35.492;-97.520;2023-07-02T08:53:35;5;5;
43479;PMS5003;29067;35.492;-97.520;2023-07-02T08:56:03;6;5;
43479;PMS5003;29067;35.492;-97.520;2023-07-02T08:58:32;7;5;
43479;PMS5003;29067;35.492;-97.520;2023-07-02T09:01:08;5;5;
43479;PMS5003;29067;35.492;-97.520;2023-07-02T09:03:37;4;4;
43479;PMS5003;29067;35.492;-97.520;2023-07-02T09:06:07;5;5;
43479;PMS5003;29067;35.492;-97.520;2023-07-02T09:08:36;6;5;
43479;PMS5003;29067;35.492;-97.520;2023-07-02T09:11:06;6;6;
43479;PMS5003;29067;35.492;-97.520;2023-07-02T09:13:43;5;5;
43479;PMS5003;29067;35.492;-97.520;2023-07-02T09:16:28;5;5;
43479;PMS5003;29067;35.492;-97.520;2023-07-02T09:18:57;6;6;
43479;PMS5003;29067;35.492;-97.520;2023-07-02T09:21:27;6;6;
43479;PMS5003;29067;35.492;-97.520;2023-07-02T09:24:11;4;4;
43479;PMS5003;29067;35.492;-97.520;2023-07-02T09:26:42;5;5;
43479;PMS5003;29067;35.492;-97.520;2023-07-02T09:29:11;5;5;
43479;PMS5003;29067;35.492;-97.520;2023-07-02T09:31:43;6;6;
43479;PMS5003;29067;35.492;-97.520;2023-07-02T09:34:12;6;5;
43479;PMS5003;29067;35.492;-97.520;2023-07-02T09:36:41;5;5;
43479;PMS5003;29067;35.492;-97.520;2023-07-02T09:39:11;6;6;
43479;PMS5003;29067;35.492;-97.520;2023-07-02T09:41:40;6;6;
43479;PMS5003;29067;35.492;-97.520;2023-07-02T09:44:09;7;7;
43479;PMS5003;29067;35.492;-97.520;2023-07-02T09:46:41;7;5;
43479;PMS5003;29067;35.492;-97.520;2023-07-02T10:05:27;8;7;
43479;PMS5003;29067;35.492;-97.520;2023-07-02T10:07:55;7;7;
43479;PMS5003;29067;35.492;-97.520;2023-07-02T10:10:26;8;7;
43479;PMS5003;29067;35.492;-97.520;2023-07-02T10:12:56;6;6;
43479;PMS5003;29067;35.492;-97.520;2023-07-02T10:15:24;6;6;
43479;PMS5003;29067;35.492;-97.520;2023-07-02T10:17:55;9;8;
43479;PMS5003;29067;35.492;-97.520;2023-07-02T10:20:31;8;8;
43479;PMS5003;29067;35.492;-97.520;2023-07-02T10:23:00;11;11;
43479;PMS5003;29067;35.492;-97.520;2023-07-02T10:25:29;11;11;
43479;PMS5003;29067;35.492;-97.520;2023-07-02T10:27:59;7;6;
43479;PMS5003;29067;35.492;-97.520;2023-07-02T10:30:31;6;6;
43479;PMS5003;29067;35.492;-97.520;2023-07-02T10:33:08;9;9;
43479;PMS5003;29067;35.492;-97.520;2023-07-02T10:35:37;5;5;
43479;PMS5003;29067;35.492;-97.520;2023-07-02T10:38:05;4;4;
43479;PMS5003;29067;35.492;-97.520;2023-07-02T10:40:33;7;6;
43479;PMS5003;29067;35.492;-97.520;2023-07-02T10:43:02;4;4;
43479;PMS5003;29067;35.492;-97.520;2023-07-02T10:45:31;5;5;
43479;PMS5003;29067;35.492;-97.520;2023-07-02T10:48:01;6;6;
43479;PMS5003;29067;35.492;-97.520;2023-07-02T10:50:30;5;5;
43479;PMS5003;29067;35.492;-97.520;2023-07-02T10:52:58;6;6;
43479;PMS5003;29067;35.492;-97.520;2023-07-02T10:55:26;5;5;
43479;PMS5003;29067;35.492;-97.520;2023-07-02T10:58:02;6;5;
43479;PMS5003;29067;35.492;-97.520;2023-07-02T11:03:02;5;4;
43479;PMS5003;29067;35.492;-97.520;2023-07-02T11:05:31;6;5;
43479;PMS5003;29067;35.492;-97.520;2023-07-02T11:08:07;5;5;
43479;PMS5003;29067;35.492;-97.520;2023-07-02T11:10:35;5;5;
43479;PMS5003;29067;35.492;-97.520;2023-07-02T11:13:10;6;6;
43479;PMS5003;29067;35.492;-97.520;2023-07-02T11:15:38;4;4;
43479;PMS5003;29067;35.492;-97.520;2023-07-02T11:18:10;5;5;
43479;PMS5003;29067;35.492;-97.520;2023-07-02T11:20:39;5;5;
43479;PMS5003;29067;35.492;-97.520;2023-07-02T11:23:17;5;4;
43479;PMS5003;29067;35.492;-97.520;2023-07-02T11:25:59;4;4;
43479;PMS5003;29067;35.492;-97.520;2023-07-02T11:28:29;3;3;
43479;PMS5003;29067;35.492;-97.520;2023-07-02T11:30:58;4;4;
43479;PMS5003;29067;35.492;-97.520;2023-07-02T11:33:35;5;5;
43479;PMS5003;29067;35.492;-97.520;2023-07-02T11:36:03;4;4;
43479;PMS5003;29067;35.492;-97.520;2023-07-02T11:38:32;4;4;
43479;PMS5003;29067;35.492;-97.520;2023-07-02T11:41:02;5;4;
43479;PMS5003;29067;35.492;-97.520;2023-07-02T11:43:31;5;5;
43479;PMS5003;29067;35.492;-97.520;2023-07-02T11:45:59;3;3;
43479;PMS5003;29067;35.492;-97.520;2023-07-02T11:48:27;5;5;
43479;PMS5003;29067;35.492;-97.520;2023-07-02T11:50:54;4;4;
43479;PMS5003;29067;35.492;-97.520;2023-07-02T11:53:22;3;3;
43479;PMS5003;29067;35.492;-97.520;2023-07-02T11:55:49;3;3;
43479;PMS5003;29067;35.492;-97.520;2023-07-02T11:58:17;4;3;
43479;PMS5003;29067;35.492;-97.520;2023-07-02T12:00:45;5;4;
43479;PMS5003;29067;35.492;-97.520;2023-07-02T12:03:14;3;3;
43479;PMS5003;29067;35.492;-97.520;2023-07-02T12:05:43;5;4;
43479;PMS5003;29067;35.492;-97.520;2023-07-02T12:08:11;5;5;
43479;PMS5003;29067;35.492;-97.520;2023-07-02T12:10:40;3;3;
43479;PMS5003;29067;35.492;-97.520;2023-07-02T12:13:07;5;5;
43479;PMS5003;29067;35.492;-97.520;2023-07-02T12:15:36;2;2;
43479;PMS5003;29067;35.492;-97.520;2023-07-02T12:18:04;4;3;
43479;PMS5003;29067;35.492;-97.520;2023-07-02T12:20:33;6;5;
43479;PMS5003;29067;35.492;-97.520;2023-07-02T12:23:00;4;4;
43479;PMS5003;29067;35.492;-97.520;2023-07-02T12:25:28;6;6;
43479;PMS5003;29067;35.492;-97.520;2023-07-02T12:27:55;4;3;
43479;PMS5003;29067;35.492;-97.520;2023-07-02T12:30:24;6;6;
43479;PMS5003;29067;35.492;-97.520;2023-07-02T12:32:51;5;4;
43479;PMS5003;29067;35.492;-97.520;2023-07-02T12:35:19;5;5;
43479;PMS5003;29067;35.492;-97.520;2023-07-02T12:37:48;5;4;
43479;PMS5003;29067;35.492;-97.520;2023-07-02T12:40:17;4;4;
43479;PMS5003;29067;35.492;-97.520;2023-07-02T12:42:46;4;4;
43479;PMS5003;29067;35.492;-97.520;2023-07-02T12:45:14;7;6;
43479;PMS5003;29067;35.492;-97.520;2023-07-02T12:47:43;3;2;
43479;PMS5003;29067;35.492;-97.520;2023-07-02T12:50:10;4;4;
43479;PMS5003;29067;35.492;-97.520;2023-07-02T12:52:39;6;6;
43479;PMS5003;29067;35.492;-97.520;2023-07-02T12:55:08;4;4;
43479;PMS5003;29067;35.492;-97.520;2023-07-02T12:57:36;3;3;
43479;PMS5003;29067;35.492;-97.520;2023-07-02T13:00:04;5;4;
43479;PMS5003;29067;35.492;-97.520;2023-07-02T13:02:33;5;5;
43479;PMS5003;29067;35.492;-97.520;2023-07-02T13:05:02;3;3;
43479;PMS5003;29067;35.492;-97.520;2023-07-02T13:07:31;3;3;
43479;PMS5003;29067;35.492;-97.520;2023-07-02T13:09:58;6;5;
43479;PMS5003;29067;35.492;-97.520;2023-07-02T13:12:26;4;4;
43479;PMS5003;29067;35.492;-97.520;2023-07-02T13:14:54;4;4;
43479;PMS5003;29067;35.492;-97.520;2023-07-02T13:17:22;7;7;
43479;PMS5003;29067;35.492;-97.520;2023-07-02T13:19:49;6;6;
43479;PMS5003;29067;35.492;-97.520;2023-07-02T13:22:17;5;5;
43479;PMS5003;29067;35.492;-97.520;2023-07-02T13:24:45;6;5;
43479;PMS5003;29067;35.492;-97.520;2023-07-02T13:27:13;8;6;
43479;PMS5003;29067;35.492;-97.520;2023-07-02T13:29:42;4;4;
43479;PMS5003;29067;35.492;-97.520;2023-07-02T13:32:10;8;7;
43479;PMS5003;29067;35.492;-97.520;2023-07-02T13:34:37;4;4;
43479;PMS5003;29067;35.492;-97.520;2023-07-02T13:37:05;7;7;
43479;PMS5003;29067;35.492;-97.520;2023-07-02T13:39:33;12;12;
43479;PMS5003;29067;35.492;-97.520;2023-07-02T13:42:02;7;7;
43479;PMS5003;29067;35.492;-97.520;2023-07-02T13:44:30;6;6;
43479;PMS5003;29067;35.492;-97.520;2023-07-02T13:46:59;6;5;
43479;PMS5003;29067;35.492;-97.520;2023-07-02T13:49:27;5;5;
43479;PMS5003;29067;35.492;-97.520;2023-07-02T13:51:55;6;6;
43479;PMS5003;29067;35.492;-97.520;2023-07-02T13:54:23;8;7;
43479;PMS5003;29067;35.492;-97.520;2023-07-02T13:56:51;6;5;
43479;PMS5003;29067;35.492;-97.520;2023-07-02T13:59:20;3;3;
43479;PMS5003;29067;35.492;-97.520;2023-07-02T14:01:48;4;4;
43479;PMS5003;29067;35.492;-97.520;2023-07-02T14:04:17;4;4;
43479;PMS5003;29067;35.492;-97.520;2023-07-02T14:06:46;4;4;
43479;PMS5003;29067;35.492;-97.520;2023-07-02T14:09:14;4;4;
43479;PMS5003;29067;35.492;-97.520;2023-07-02T14:11:42;2;2;
43479;PMS5003;29067;35.492;-97.520;2023-07-02T14:14:11;3;3;
43479;PMS5003;29067;35.492;-97.520;2023-07-02T14:16:39;3;3;
43479;PMS5003;29067;35.492;-97.520;2023-07-02T14:19:08;4;3;
43479;PMS5003;29067;35.492;-97.520;2023-07-02T14:21:35;3;3;
43479;PMS5003;29067;35.492;-97.520;2023-07-02T14:24:04;4;4;
43479;PMS5003;29067;35.492;-97.520;2023-07-02T14:26:32;3;2;
43479;PMS5003;29067;35.492;-97.520;2023-07-02T14:29:00;3;3;
43479;PMS5003;29067;35.492;-97.520;2023-07-02T14:31:29;3;3;
43479;PMS5003;29067;35.492;-97.520;2023-07-02T14:33:57;2;2;
43479;PMS5003;29067;35.492;-97.520;2023-07-02T14:36:25;4;4;
43479;PMS5003;29067;35.492;-97.520;2023-07-02T14:38:54;3;3;
43479;PMS5003;29067;35.492;-97.520;2023-07-02T14:41:22;2;2;
43479;PMS5003;29067;35.492;-97.520;2023-07-02T14:43:50;3;3;
43479;PMS5003;29067;35.492;-97.520;2023-07-02T14:46:19;3;3;
43479;PMS5003;29067;35.492;-97.520;2023-07-02T14:48:47;4;4;
43479;PMS5003;29067;35.492;-97.520;2023-07-02T14:51:16;3;3;
43479;PMS5003;29067;35.492;-97.520;2023-07-02T14:53:44;4;4;
43479;PMS5003;29067;35.492;-97.520;2023-07-02T14:56:12;2;2;
43479;PMS5003;29067;35.492;-97.520;2023-07-02T14:58:41;3;3;
43479;PMS5003;29067;35.492;-97.520;2023-07-02T15:01:09;3;3;
43479;PMS5003;29067;35.492;-97.520;2023-07-02T15:03:37;3;3;
43479;PMS5003;29067;35.492;-97.520;2023-07-02T15:06:07;4;4;
43479;PMS5003;29067;35.492;-97.520;2023-07-02T15:08:36;4;4;
43479;PMS5003;29067;35.492;-97.520;2023-07-02T15:11:05;4;4;
43479;PMS5003;29067;35.492;-97.520;2023-07-02T15:13:34;15;15;
43479;PMS5003;29067;35.492;-97.520;2023-07-02T15:16:02;19;19;
43479;PMS5003;29067;35.492;-97.520;2023-07-02T15:18:30;4;4;
43479;PMS5003;29067;35.492;-97.520;2023-07-02T15:20:58;5;5;
43479;PMS5003;29067;35.492;-97.520;2023-07-02T15:23:29;5;5;
43479;PMS5003;29067;35.492;-97.520;2023-07-02T15:25:59;5;4;
43479;PMS5003;29067;35.492;-97.520;2023-07-02T15:28:28;5;5;
43479;PMS5003;29067;35.492;-97.520;2023-07-02T15:30:58;4;4;
43479;PMS5003;29067;35.492;-97.520;2023-07-02T15:33:32;4;4;
43479;PMS5003;29067;35.492;-97.520;2023-07-02T15:36:01;5;5;
43479;PMS5003;29067;35.492;-97.520;2023-07-02T15:38:31;4;4;
43479;PMS5003;29067;35.492;-97.520;2023-07-02T15:41:05;5;5;
43479;PMS5003;29067;35.492;-97.520;2023-07-02T15:43:35;4;4;
43479;PMS5003;29067;35.492;-97.520;2023-07-02T15:46:04;4;3;
43479;PMS5003;29067;35.492;-97.520;2023-07-02T15:48:32;9;9;
43479;PMS5003;29067;35.492;-97.520;2023-07-02T15:51:02;4;3;
43479;PMS5003;29067;35.492;-97.520;2023-07-02T15:53:31;4;3;
43479;PMS5003;29067;35.492;-97.520;2023-07-02T15:56:00;4;4;
43479;PMS5003;29067;35.492;-97.520;2023-07-02T15:58:29;4;4;
43479;PMS5003;29067;35.492;-97.520;2023-07-02T16:01:07;6;5;
43479;PMS5003;29067;35.492;-97.520;2023-07-02T16:03:37;4;4;
43479;PMS5003;29067;35.492;-97.520;2023-07-02T16:06:05;3;3;
43479;PMS5003;29067;35.492;-97.520;2023-07-02T16:08:34;5;5;
43479;PMS5003;29067;35.492;-97.520;2023-07-02T16:11:04;5;4;
43479;PMS5003;29067;35.492;-97.520;2023-07-02T16:13:33;4;4;
43479;PMS5003;29067;35.492;-97.520;2023-07-02T16:16:02;3;3;
43479;PMS5003;29067;35.492;-97.520;2023-07-02T16:18:31;5;5;
43479;PMS5003;29067;35.492;-97.520;2023-07-02T16:21:00;5;4;
43479;PMS5003;29067;35.492;-97.520;2023-07-02T16:23:29;4;4;
43479;PMS5003;29067;35.492;-97.520;2023-07-02T16:25:58;4;4;
43479;PMS5003;29067;35.492;-97.520;2023-07-02T16:28:28;4;4;
43479;PMS5003;29067;35.492;-97.520;2023-07-02T16:30:57;4;4;
43479;PMS5003;29067;35.492;-97.520;2023-07-02T16:33:25;5;5;
43479;PMS5003;29067;35.492;-97.520;2023-07-02T16:35:53;4;4;
43479;PMS5003;29067;35.492;-97.520;2023-07-02T16:38:22;4;3;
43479;PMS5003;29067;35.492;-97.520;2023-07-02T16:40:50;5;5;